sensor_id;sensor_type;location;lat;lon;timestamp;temperature;humidity
11925;DHT22;6022;48.768;18.608;2023-02-11T00:01:24;-5.80;99.90
11925;DHT22;6022;48.768;18.608;2023-02-11T00:03:53;-6.20;99.90
11925;DHT22;6022;48.768;18.608;2023-02-11T00:06:21;-5.80;99.90
11925;DHT22;6022;48.768;18.608;2023-02-11T00:08:50;-5.90;99.90
11925;DHT22;6022;48.768;18.608;2023-02-11T00:11:19;-6.30;99.90
11925;DHT22;6022;48.768;18.608;2023-02-11T00:13:49;-6.40;99.90
11925;DHT22;6022;48.768;18.608;2023-02-11T00:16:19;-6.60;99.90
11925;DHT22;6022;48.768;18.608;2023-02-11T00:18:47;-6.40;99.90
11925;DHT22;6022;48.768;18.608;2023-02-11T00:21:18;-6.40;99.90
11925;DHT22;6022;48.768;18.608;2023-02-11T00:23:48;-6.40;99.90
11925;DHT22;6022;48.768;18.608;2023-02-11T00:28:52;-6.60;99.90
11925;DHT22;6022;48.768;18.608;2023-02-11T00:31:20;-5.40;99.90
11925;DHT22;6022;48.768;18.608;2023-02-11T00:33:49;-6.60;99.90
11925;DHT22;6022;48.768;18.608;2023-02-11T00:36:22;-6.70;99.90
11925;DHT22;6022;48.768;18.608;2023-02-11T00:38:53;-7.00;99.90
11925;DHT22;6022;48.768;18.608;2023-02-11T00:41:22;-7.10;99.90
11925;DHT22;6022;48.768;18.608;2023-02-11T00:43:50;-7.10;99.90
11925;DHT22;6022;48.768;18.608;2023-02-11T00:46:18;-7.00;99.90
11925;DHT22;6022;48.768;18.608;2023-02-11T00:48:46;-7.00;99.90
11925;DHT22;6022;48.768;18.608;2023-02-11T00:51:14;-6.80;99.90
11925;DHT22;6022;48.768;18.608;2023-02-11T00:53:41;-7.00;99.90
11925;DHT22;6022;48.768;18.608;2023-02-11T00:56:08;-7.20;99.90
11925;DHT22;6022;48.768;18.608;2023-02-11T00:58:35;-6.80;99.90
11925;DHT22;6022;48.768;18.608;2023-02-11T01:01:03;-7.30;99.90
11925;DHT22;6022;48.768;18.608;2023-02-11T01:03:31;-7.20;99.90
11925;DHT22;6022;48.768;18.608;2023-02-11T01:05:58;-7.10;99.90
11925;DHT22;6022;48.768;18.608;2023-02-11T01:08:26;-6.90;99.90
11925;DHT22;6022;48.768;18.608;2023-02-11T01:10:57;-7.30;99.90
11925;DHT22;6022;48.768;18.608;2023-02-11T01:13:27;-7.20;99.90
11925;DHT22;6022;48.768;18.608;2023-02-11T01:15:57;-7.30;99.90
11925;DHT22;6022;48.768;18.608;2023-02-11T01:18:27;-7.10;99.90
11925;DHT22;6022;48.768;18.608;2023-02-11T01:20:55;-7.10;99.90
11925;DHT22;6022;48.768;18.608;2023-02-11T01:23:22;-6.90;99.90
11925;DHT22;6022;48.768;18.608;2023-02-11T01:25:50;-7.10;99.90
11925;DHT22;6022;48.768;18.608;2023-02-11T01:28:20;-7.20;99.90
11925;DHT22;6022;48.768;18.608;2023-02-11T01:30:50;-7.10;99.90
11925;DHT22;6022;48.768;18.608;2023-02-11T01:33:25;-7.10;99.90
11925;DHT22;6022;48.768;18.608;2023-02-11T01:36:00;-7.50;99.90
11925;DHT22;6022;48.768;18.608;2023-02-11T01:38:30;-7.30;99.90
11925;DHT22;6022;48.768;18.608;2023-02-11T01:41:04;-7.00;99.90
11925;DHT22;6022;48.768;18.608;2023-02-11T01:43:46;-7.00;99.90
11925;DHT22;6022;48.768;18.608;2023-02-11T01:46:36;-7.20;99.90
11925;DHT22;6022;48.768;18.608;2023-02-11T01:49:13;-7.10;99.90
11925;DHT22;6022;48.768;18.608;2023-02-11T01:52:21;-7.30;99.90
11925;DHT22;6022;48.768;18.608;2023-02-11T01:54:54;-6.90;99.90
11925;DHT22;6022;48.768;18.608;2023-02-11T01:57:46;-7.00;99.90
11925;DHT22;6022;48.768;18.608;2023-02-11T02:00:19;-7.20;99.90
11925;DHT22;6022;48.768;18.608;2023-02-11T02:05:44;-7.00;99.90
11925;DHT22;6022;48.768;18.608;2023-02-11T02:08:46;-7.40;99.90
11925;DHT22;6022;48.768;18.608;2023-02-11T02:11:16;-7.60;99.90
11925;DHT22;6022;48.768;18.608;2023-02-11T02:13:44;-7.30;99.90
11925;DHT22;6022;48.768;18.608;2023-02-11T02:16:14;-6.30;99.90
11925;DHT22;6022;48.768;18.608;2023-02-11T02:22:04;-7.50;99.90
11925;DHT22;6022;48.768;18.608;2023-02-11T02:37:08;-7.30;99.90
11925;DHT22;6022;48.768;18.608;2023-02-11T02:39:44;-7.30;99.90
11925;DHT22;6022;48.768;18.608;2023-02-11T02:42:13;-7.40;99.90
11925;DHT22;6022;48.768;18.608;2023-02-11T02:44:50;-7.30;99.90
11925;DHT22;6022;48.768;18.608;2023-02-11T02:47:19;-7.10;99.90
11925;DHT22;6022;48.768;18.608;2023-02-11T02:49:46;-5.90;99.90
11925;DHT22;6022;48.768;18.608;2023-02-11T03:03:40;-7.00;99.90
11925;DHT22;6022;48.768;18.608;2023-02-11T03:09:26;-7.20;99.90
11925;DHT22;6022;48.768;18.608;2023-02-11T03:12:07;-7.80;99.90
11925;DHT22;6022;48.768;18.608;2023-02-11T03:14:36;-7.40;99.90
11925;DHT22;6022;48.768;18.608;2023-02-11T03:17:07;-7.60;99.90
11925;DHT22;6022;48.768;18.608;2023-02-11T03:20:05;-7.60;99.90
11925;DHT22;6022;48.768;18.608;2023-02-11T03:22:52;-7.80;99.90
11925;DHT22;6022;48.768;18.608;2023-02-11T03:25:40;-7.30;99.90
11925;DHT22;6022;48.768;18.608;2023-02-11T03:28:17;-7.60;99.90
11925;DHT22;6022;48.768;18.608;2023-02-11T03:31:11;-7.40;99.90
11925;DHT22;6022;48.768;18.608;2023-02-11T03:39:26;-7.60;99.90
11925;DHT22;6022;48.768;18.608;2023-02-11T03:41:59;-7.50;99.90
11925;DHT22;6022;48.768;18.608;2023-02-11T03:44:33;-7.60;99.90
11925;DHT22;6022;48.768;18.608;2023-02-11T03:47:08;-8.20;99.90
11925;DHT22;6022;48.768;18.608;2023-02-11T03:49:39;-8.10;99.90
11925;DHT22;6022;48.768;18.608;2023-02-11T03:52:09;-8.10;99.90
11925;DHT22;6022;48.768;18.608;2023-02-11T03:54:40;-8.00;99.90
11925;DHT22;6022;48.768;18.608;2023-02-11T03:57:11;-8.00;99.90
11925;DHT22;6022;48.768;18.608;2023-02-11T03:59:56;-8.00;99.90
11925;DHT22;6022;48.768;18.608;2023-02-11T04:02:28;-8.00;99.90
11925;DHT22;6022;48.768;18.608;2023-02-11T04:04:57;-8.20;99.90
11925;DHT22;6022;48.768;18.608;2023-02-11T04:07:25;-7.90;99.90
11925;DHT22;6022;48.768;18.608;2023-02-11T04:09:52;-8.10;99.90
11925;DHT22;6022;48.768;18.608;2023-02-11T04:12:20;-8.30;99.90
11925;DHT22;6022;48.768;18.608;2023-02-11T04:14:48;-8.10;99.90
11925;DHT22;6022;48.768;18.608;2023-02-11T04:17:15;-8.30;99.90
11925;DHT22;6022;48.768;18.608;2023-02-11T04:19:43;-8.20;99.90
11925;DHT22;6022;48.768;18.608;2023-02-11T04:22:11;-8.30;99.90
11925;DHT22;6022;48.768;18.608;2023-02-11T04:24:38;-7.80;99.90
11925;DHT22;6022;48.768;18.608;2023-02-11T04:27:05;-8.20;99.90
11925;DHT22;6022;48.768;18.608;2023-02-11T04:29:33;-7.80;99.90
11925;DHT22;6022;48.768;18.608;2023-02-11T04:32:00;-8.00;99.90
11925;DHT22;6022;48.768;18.608;2023-02-11T04:34:27;-7.80;99.90
11925;DHT22;6022;48.768;18.608;2023-02-11T04:36:54;-7.90;99.90
11925;DHT22;6022;48.768;18.608;2023-02-11T04:39:55;-7.80;99.90
11925;DHT22;6022;48.768;18.608;2023-02-11T04:42:22;-7.90;99.90
11925;DHT22;6022;48.768;18.608;2023-02-11T04:44:50;-7.70;99.90
11925;DHT22;6022;48.768;18.608;2023-02-11T04:47:17;-7.40;99.90
11925;DHT22;6022;48.768;18.608;2023-02-11T04:49:44;-7.50;99.90
11925;DHT22;6022;48.768;18.608;2023-02-11T04:52:12;-7.50;99.90
11925;DHT22;6022;48.768;18.608;2023-02-11T04:54:39;-7.60;99.90
11925;DHT22;6022;48.768;18.608;2023-02-11T04:57:06;-7.30;99.90
11925;DHT22;6022;48.768;18.608;2023-02-11T04:59:34;-7.40;99.90
11925;DHT22;6022;48.768;18.608;2023-02-11T05:02:01;-7.20;99.90
11925;DHT22;6022;48.768;18.608;2023-02-11T05:04:29;-7.10;99.90
11925;DHT22;6022;48.768;18.608;2023-02-11T05:06:57;-7.00;99.90
11925;DHT22;6022;48.768;18.608;2023-02-11T05:09:24;-7.00;99.90
11925;DHT22;6022;48.768;18.608;2023-02-11T05:11:51;-6.90;99.90
11925;DHT22;6022;48.768;18.608;2023-02-11T05:14:19;-7.00;99.90
11925;DHT22;6022;48.768;18.608;2023-02-11T05:16:46;-7.30;99.90
11925;DHT22;6022;48.768;18.608;2023-02-11T05:19:18;-7.10;99.90
11925;DHT22;6022;48.768;18.608;2023-02-11T05:22:17;-7.20;99.90
11925;DHT22;6022;48.768;18.608;2023-02-11T05:24:44;-7.30;99.90
11925;DHT22;6022;48.768;18.608;2023-02-11T05:27:12;-7.10;99.90
11925;DHT22;6022;48.768;18.608;2023-02-11T05:29:39;-7.30;99.90
11925;DHT22;6022;48.768;18.608;2023-02-11T05:32:06;-7.30;99.90
11925;DHT22;6022;48.768;18.608;2023-02-11T05:34:35;-7.10;99.90
11925;DHT22;6022;48.768;18.608;2023-02-11T05:37:07;-7.40;99.90
11925;DHT22;6022;48.768;18.608;2023-02-11T05:39:35;-7.20;99.90
11925;DHT22;6022;48.768;18.608;2023-02-11T05:42:02;-7.30;99.90
11925;DHT22;6022;48.768;18.608;2023-02-11T05:44:30;-7.10;99.90
11925;DHT22;6022;48.768;18.608;2023-02-11T05:46:57;-7.10;99.90
11925;DHT22;6022;48.768;18.608;2023-02-11T05:49:24;-6.80;99.90
11925;DHT22;6022;48.768;18.608;2023-02-11T05:51:51;-7.30;99.90
11925;DHT22;6022;48.768;18.608;2023-02-11T05:54:19;-7.20;99.90
11925;DHT22;6022;48.768;18.608;2023-02-11T05:56:46;-6.80;99.90
11925;DHT22;6022;48.768;18.608;2023-02-11T05:59:13;-7.00;99.90
11925;DHT22;6022;48.768;18.608;2023-02-11T06:01:41;-7.10;99.90
11925;DHT22;6022;48.768;18.608;2023-02-11T06:04:12;-6.90;99.90
11925;DHT22;6022;48.768;18.608;2023-02-11T06:06:39;-7.10;99.90
11925;DHT22;6022;48.768;18.608;2023-02-11T06:09:06;-7.10;99.90
11925;DHT22;6022;48.768;18.608;2023-02-11T06:11:35;-6.70;99.90
11925;DHT22;6022;48.768;18.608;2023-02-11T06:14:05;-6.60;99.90
11925;DHT22;6022;48.768;18.608;2023-02-11T06:16:32;-6.60;99.90
11925;DHT22;6022;48.768;18.608;2023-02-11T06:19:00;-6.50;99.90
11925;DHT22;6022;48.768;18.608;2023-02-11T06:21:34;-5.50;99.90
11925;DHT22;6022;48.768;18.608;2023-02-11T06:24:10;-6.80;99.90
11925;DHT22;6022;48.768;18.608;2023-02-11T06:26:38;-6.60;99.90
11925;DHT22;6022;48.768;18.608;2023-02-11T06:29:05;-6.50;99.90
11925;DHT22;6022;48.768;18.608;2023-02-11T06:31:32;-6.70;99.90
11925;DHT22;6022;48.768;18.608;2023-02-11T06:34:00;-6.50;99.90
11925;DHT22;6022;48.768;18.608;2023-02-11T06:36:27;-6.60;99.90
11925;DHT22;6022;48.768;18.608;2023-02-11T06:38:54;-6.30;99.90
11925;DHT22;6022;48.768;18.608;2023-02-11T06:41:22;-6.50;99.90
11925;DHT22;6022;48.768;18.608;2023-02-11T06:43:50;-6.10;99.90
11925;DHT22;6022;48.768;18.608;2023-02-11T06:46:21;-6.40;99.90
11925;DHT22;6022;48.768;18.608;2023-02-11T06:48:57;-6.30;99.90
11925;DHT22;6022;48.768;18.608;2023-02-11T06:51:24;-6.20;99.90
11925;DHT22;6022;48.768;18.608;2023-02-11T06:53:54;-6.30;99.90
11925;DHT22;6022;48.768;18.608;2023-02-11T06:56:22;-6.50;99.90
11925;DHT22;6022;48.768;18.608;2023-02-11T06:58:54;-5.70;99.90
11925;DHT22;6022;48.768;18.608;2023-02-11T07:01:24;-6.30;99.90
11925;DHT22;6022;48.768;18.608;2023-02-11T07:03:52;-6.10;99.90
11925;DHT22;6022;48.768;18.608;2023-02-11T07:06:22;-6.40;99.90
11925;DHT22;6022;48.768;18.608;2023-02-11T07:08:52;-5.20;99.90
11925;DHT22;6022;48.768;18.608;2023-02-11T07:11:25;-5.40;99.90
11925;DHT22;6022;48.768;18.608;2023-02-11T07:13:56;-6.20;99.90
11925;DHT22;6022;48.768;18.608;2023-02-11T07:16:30;-5.90;99.90
11925;DHT22;6022;48.768;18.608;2023-02-11T07:18:58;-6.10;99.90
11925;DHT22;6022;48.768;18.608;2023-02-11T07:21:25;-5.70;99.90
11925;DHT22;6022;48.768;18.608;2023-02-11T07:23:53;-5.50;99.90
11925;DHT22;6022;48.768;18.608;2023-02-11T07:26:22;-5.80;99.90
11925;DHT22;6022;48.768;18.608;2023-02-11T07:28:50;-5.30;99.90
11925;DHT22;6022;48.768;18.608;2023-02-11T07:31:24;-5.20;99.90
11925;DHT22;6022;48.768;18.608;2023-02-11T07:33:55;-4.80;99.90
11925;DHT22;6022;48.768;18.608;2023-02-11T07:36:28;-4.50;99.90
11925;DHT22;6022;48.768;18.608;2023-02-11T07:38:57;-5.00;99.90
11925;DHT22;6022;48.768;18.608;2023-02-11T07:41:25;-4.60;99.90
11925;DHT22;6022;48.768;18.608;2023-02-11T07:43:53;-4.50;99.90
11925;DHT22;6022;48.768;18.608;2023-02-11T07:48:55;-4.00;99.90
11925;DHT22;6022;48.768;18.608;2023-02-11T07:51:25;-3.90;99.90
11925;DHT22;6022;48.768;18.608;2023-02-11T07:53:56;-4.00;99.90
11925;DHT22;6022;48.768;18.608;2023-02-11T07:56:26;-3.90;99.90
11925;DHT22;6022;48.768;18.608;2023-02-11T07:58:55;-3.10;99.90
11925;DHT22;6022;48.768;18.608;2023-02-11T08:01:26;-3.80;99.90
11925;DHT22;6022;48.768;18.608;2023-02-11T08:03:55;-3.60;99.90
11925;DHT22;6022;48.768;18.608;2023-02-11T08:06:26;-3.50;99.90
11925;DHT22;6022;48.768;18.608;2023-02-11T08:08:55;-3.40;99.90
11925;DHT22;6022;48.768;18.608;2023-02-11T08:11:25;-3.30;99.90
11925;DHT22;6022;48.768;18.608;2023-02-11T08:13:55;-3.50;99.90
11925;DHT22;6022;48.768;18.608;2023-02-11T08:16:28;-3.20;99.90
11925;DHT22;6022;48.768;18.608;2023-02-11T08:19:02;-3.70;99.90
11925;DHT22;6022;48.768;18.608;2023-02-11T08:21:32;-3.60;99.90
11925;DHT22;6022;48.768;18.608;2023-02-11T08:24:00;-3.70;99.90
11925;DHT22;6022;48.768;18.608;2023-02-11T08:26:30;-3.50;99.90
11925;DHT22;6022;48.768;18.608;2023-02-11T08:29:02;-3.30;99.90
11925;DHT22;6022;48.768;18.608;2023-02-11T08:31:35;-3.20;99.90
11925;DHT22;6022;48.768;18.608;2023-02-11T08:34:05;-3.40;99.90
11925;DHT22;6022;48.768;18.608;2023-02-11T08:36:36;-3.30;99.90
11925;DHT22;6022;48.768;18.608;2023-02-11T08:39:08;-3.30;99.90
11925;DHT22;6022;48.768;18.608;2023-02-11T08:41:48;-3.30;99.90
11925;DHT22;6022;48.768;18.608;2023-02-11T08:44:19;-3.40;99.90
11925;DHT22;6022;48.768;18.608;2023-02-11T08:46:49;-3.30;99.90
11925;DHT22;6022;48.768;18.608;2023-02-11T08:49:24;-2.00;99.90
11925;DHT22;6022;48.768;18.608;2023-02-11T08:51:51;-3.00;99.90
11925;DHT22;6022;48.768;18.608;2023-02-11T08:54:20;-2.30;99.90
11925;DHT22;6022;48.768;18.608;2023-02-11T08:56:50;-2.70;99.90
11925;DHT22;6022;48.768;18.608;2023-02-11T08:59:21;-2.60;99.90
11925;DHT22;6022;48.768;18.608;2023-02-11T09:02:00;-2.10;99.90
11925;DHT22;6022;48.768;18.608;2023-02-11T09:04:28;-2.00;99.90
11925;DHT22;6022;48.768;18.608;2023-02-11T09:06:58;-1.80;99.90
11925;DHT22;6022;48.768;18.608;2023-02-11T09:09:26;-1.50;99.90
11925;DHT22;6022;48.768;18.608;2023-02-11T09:11:53;-1.90;99.90
11925;DHT22;6022;48.768;18.608;2023-02-11T09:14:40;-1.70;99.90
11925;DHT22;6022;48.768;18.608;2023-02-11T09:17:15;-1.80;99.90
11925;DHT22;6022;48.768;18.608;2023-02-11T09:19:45;-1.80;99.90
11925;DHT22;6022;48.768;18.608;2023-02-11T09:22:12;-1.90;99.90
11925;DHT22;6022;48.768;18.608;2023-02-11T09:24:42;-1.70;99.90
11925;DHT22;6022;48.768;18.608;2023-02-11T09:27:10;-1.40;99.90
11925;DHT22;6022;48.768;18.608;2023-02-11T09:29:38;-1.20;99.90
11925;DHT22;6022;48.768;18.608;2023-02-11T09:32:07;-0.90;99.90
11925;DHT22;6022;48.768;18.608;2023-02-11T09:34:39;-1.70;99.90
11925;DHT22;6022;48.768;18.608;2023-02-11T09:37:11;-0.80;99.90
11925;DHT22;6022;48.768;18.608;2023-02-11T09:39:39;-0.80;99.90
11925;DHT22;6022;48.768;18.608;2023-02-11T09:42:32;-0.40;99.90
11925;DHT22;6022;48.768;18.608;2023-02-11T09:45:21;-0.60;99.90
11925;DHT22;6022;48.768;18.608;2023-02-11T09:50:53;-0.60;99.90
11925;DHT22;6022;48.768;18.608;2023-02-11T09:53:25;-0.90;99.90
11925;DHT22;6022;48.768;18.608;2023-02-11T09:56:00;-0.50;99.90
11925;DHT22;6022;48.768;18.608;2023-02-11T09:58:39;-0.60;99.90
11925;DHT22;6022;48.768;18.608;2023-02-11T10:01:15;-0.60;99.90
11925;DHT22;6022;48.768;18.608;2023-02-11T10:06:54;0.20;99.90
11925;DHT22;6022;48.768;18.608;2023-02-11T10:24:55;2.20;99.90
11925;DHT22;6022;48.768;18.608;2023-02-11T10:27:34;2.20;99.90
11925;DHT22;6022;48.768;18.608;2023-02-11T10:30:20;1.90;99.90
11925;DHT22;6022;48.768;18.608;2023-02-11T10:35:48;1.70;99.90
11925;DHT22;6022;48.768;18.608;2023-02-11T10:38:15;1.60;99.90
11925;DHT22;6022;48.768;18.608;2023-02-11T10:40:43;1.70;99.90
11925;DHT22;6022;48.768;18.608;2023-02-11T10:43:13;1.60;99.90
11925;DHT22;6022;48.768;18.608;2023-02-11T10:45:47;2.10;99.90
11925;DHT22;6022;48.768;18.608;2023-02-11T10:51:23;1.90;99.90
11925;DHT22;6022;48.768;18.608;2023-02-11T10:56:43;2.10;99.90
11925;DHT22;6022;48.768;18.608;2023-02-11T10:59:33;2.10;99.90
11925;DHT22;6022;48.768;18.608;2023-02-11T11:02:26;2.40;99.90
11925;DHT22;6022;48.768;18.608;2023-02-11T11:08:19;2.40;99.90
11925;DHT22;6022;48.768;18.608;2023-02-11T11:11:03;2.90;99.90
11925;DHT22;6022;48.768;18.608;2023-02-11T11:13:38;2.50;99.90
11925;DHT22;6022;48.768;18.608;2023-02-11T11:16:27;2.50;99.90
11925;DHT22;6022;48.768;18.608;2023-02-11T11:21:51;2.60;99.90
11925;DHT22;6022;48.768;18.608;2023-02-11T11:24:36;2.70;99.90
11925;DHT22;6022;48.768;18.608;2023-02-11T11:27:22;2.70;99.90
11925;DHT22;6022;48.768;18.608;2023-02-11T11:29:57;2.70;99.90
11925;DHT22;6022;48.768;18.608;2023-02-11T11:32:31;2.60;99.90
11925;DHT22;6022;48.768;18.608;2023-02-11T11:35:28;2.90;99.90
11925;DHT22;6022;48.768;18.608;2023-02-11T11:38:10;3.00;99.90
11925;DHT22;6022;48.768;18.608;2023-02-11T11:40:43;3.30;99.90
11925;DHT22;6022;48.768;18.608;2023-02-11T11:43:17;3.10;99.90
11925;DHT22;6022;48.768;18.608;2023-02-11T11:45:54;3.40;99.90
11925;DHT22;6022;48.768;18.608;2023-02-11T11:48:38;3.10;99.90
11925;DHT22;6022;48.768;18.608;2023-02-11T11:51:12;3.40;99.90
11925;DHT22;6022;48.768;18.608;2023-02-11T11:54:05;3.90;99.90
11925;DHT22;6022;48.768;18.608;2023-02-11T11:57:01;3.50;99.90
11925;DHT22;6022;48.768;18.608;2023-02-11T11:59:45;3.70;99.90
11925;DHT22;6022;48.768;18.608;2023-02-11T12:05:08;3.40;99.90
11925;DHT22;6022;48.768;18.608;2023-02-11T12:20:14;4.60;99.90
11925;DHT22;6022;48.768;18.608;2023-02-11T12:29:13;4.50;99.90
11925;DHT22;6022;48.768;18.608;2023-02-11T12:54:14;4.10;99.90
11925;DHT22;6022;48.768;18.608;2023-02-11T13:08:47;4.00;99.90
11925;DHT22;6022;48.768;18.608;2023-02-11T13:11:23;4.10;99.90
11925;DHT22;6022;48.768;18.608;2023-02-11T13:14:10;3.80;99.90
11925;DHT22;6022;48.768;18.608;2023-02-11T13:16:46;3.80;99.90
11925;DHT22;6022;48.768;18.608;2023-02-11T13:19:57;3.70;99.90
11925;DHT22;6022;48.768;18.608;2023-02-11T13:22:38;3.80;99.90
11925;DHT22;6022;48.768;18.608;2023-02-11T13:25:42;3.90;99.90
11925;DHT22;6022;48.768;18.608;2023-02-11T13:28:49;3.80;99.90
11925;DHT22;6022;48.768;18.608;2023-02-11T13:32:12;3.50;99.90
11925;DHT22;6022;48.768;18.608;2023-02-11T13:37:26;4.60;99.90
11925;DHT22;6022;48.768;18.608;2023-02-11T13:42:54;3.40;99.90
11925;DHT22;6022;48.768;18.608;2023-02-11T13:45:37;3.30;99.90
11925;DHT22;6022;48.768;18.608;2023-02-11T13:51:15;3.30;99.90
11925;DHT22;6022;48.768;18.608;2023-02-11T13:53:48;3.20;99.90
11925;DHT22;6022;48.768;18.608;2023-02-11T13:56:34;3.20;99.90
11925;DHT22;6022;48.768;18.608;2023-02-11T14:10:58;3.30;99.90
11925;DHT22;6022;48.768;18.608;2023-02-11T14:16:19;3.10;99.90
11925;DHT22;6022;48.768;18.608;2023-02-11T14:19:04;2.80;99.90
11925;DHT22;6022;48.768;18.608;2023-02-11T14:21:45;3.20;99.90
11925;DHT22;6022;48.768;18.608;2023-02-11T14:26:47;2.90;99.90
11925;DHT22;6022;48.768;18.608;2023-02-11T14:36:01;2.90;99.90
11925;DHT22;6022;48.768;18.608;2023-02-11T14:41:46;2.70;99.90
11925;DHT22;6022;48.768;18.608;2023-02-11T14:44:37;2.90;99.90
11925;DHT22;6022;48.768;18.608;2023-02-11T14:47:16;2.80;99.90
11925;DHT22;6022;48.768;18.608;2023-02-11T14:49:47;2.70;99.90
11925;DHT22;6022;48.768;18.608;2023-02-11T14:55:31;2.60;99.90
11925;DHT22;6022;48.768;18.608;2023-02-11T14:58:12;2.60;99.90
11925;DHT22;6022;48.768;18.608;2023-02-11T15:00:55;2.60;99.90
11925;DHT22;6022;48.768;18.608;2023-02-11T15:06:22;2.80;99.90
11925;DHT22;6022;48.768;18.608;2023-02-11T15:11:54;2.50;99.90
11925;DHT22;6022;48.768;18.608;2023-02-11T15:14:33;2.70;99.90
11925;DHT22;6022;48.768;18.608;2023-02-11T15:17:14;2.50;99.90
11925;DHT22;6022;48.768;18.608;2023-02-11T15:19:49;2.40;99.90
11925;DHT22;6022;48.768;18.608;2023-02-11T15:22:26;2.50;99.90
11925;DHT22;6022;48.768;18.608;2023-02-11T15:25:13;2.50;99.90
11925;DHT22;6022;48.768;18.608;2023-02-11T15:27:58;2.60;99.90
11925;DHT22;6022;48.768;18.608;2023-02-11T15:30:40;2.40;99.90
11925;DHT22;6022;48.768;18.608;2023-02-11T15:33:20;2.50;99.90
11925;DHT22;6022;48.768;18.608;2023-02-11T15:35:57;2.50;99.90
11925;DHT22;6022;48.768;18.608;2023-02-11T15:38:42;2.10;99.90
11925;DHT22;6022;48.768;18.608;2023-02-11T15:41:40;2.30;99.90
11925;DHT22;6022;48.768;18.608;2023-02-11T15:44:31;2.00;99.90
11925;DHT22;6022;48.768;18.608;2023-02-11T15:47:48;2.30;99.90
11925;DHT22;6022;48.768;18.608;2023-02-11T15:50:31;2.20;99.90
11925;DHT22;6022;48.768;18.608;2023-02-11T15:53:28;2.10;99.90
11925;DHT22;6022;48.768;18.608;2023-02-11T15:56:28;2.30;99.90
11925;DHT22;6022;48.768;18.608;2023-02-11T16:02:18;2.00;99.90
11925;DHT22;6022;48.768;18.608;2023-02-11T16:05:06;2.10;99.90
11925;DHT22;6022;48.768;18.608;2023-02-11T16:07:53;2.20;99.90
11925;DHT22;6022;48.768;18.608;2023-02-11T16:10:32;2.10;99.90
11925;DHT22;6022;48.768;18.608;2023-02-11T16:13:03;2.20;99.90
11925;DHT22;6022;48.768;18.608;2023-02-11T16:15:51;2.10;99.90
11925;DHT22;6022;48.768;18.608;2023-02-11T16:21:36;1.90;99.90
11925;DHT22;6022;48.768;18.608;2023-02-11T16:24:32;2.30;99.90
11925;DHT22;6022;48.768;18.608;2023-02-11T16:27:07;2.00;99.90
11925;DHT22;6022;48.768;18.608;2023-02-11T16:29:47;2.00;99.90
11925;DHT22;6022;48.768;18.608;2023-02-11T16:32:17;2.10;99.90
11925;DHT22;6022;48.768;18.608;2023-02-11T16:34:53;2.20;99.90
11925;DHT22;6022;48.768;18.608;2023-02-11T16:37:32;2.10;99.90
11925;DHT22;6022;48.768;18.608;2023-02-11T16:40:01;2.30;99.90
11925;DHT22;6022;48.768;18.608;2023-02-11T16:42:44;2.10;99.90
11925;DHT22;6022;48.768;18.608;2023-02-11T16:45:14;2.10;99.90
11925;DHT22;6022;48.768;18.608;2023-02-11T16:47:43;2.00;99.90
11925;DHT22;6022;48.768;18.608;2023-02-11T16:50:21;2.10;99.90
11925;DHT22;6022;48.768;18.608;2023-02-11T16:52:51;2.40;99.90
11925;DHT22;6022;48.768;18.608;2023-02-11T16:55:26;2.20;99.90
11925;DHT22;6022;48.768;18.608;2023-02-11T16:58:00;3.50;99.90
11925;DHT22;6022;48.768;18.608;2023-02-11T17:00:29;2.20;99.90
11925;DHT22;6022;48.768;18.608;2023-02-11T17:02:56;2.10;99.90
11925;DHT22;6022;48.768;18.608;2023-02-11T17:05:24;2.00;99.90
11925;DHT22;6022;48.768;18.608;2023-02-11T17:07:58;2.20;99.90
11925;DHT22;6022;48.768;18.608;2023-02-11T17:10:41;1.90;99.90
11925;DHT22;6022;48.768;18.608;2023-02-11T17:13:09;2.00;99.90
11925;DHT22;6022;48.768;18.608;2023-02-11T17:15:36;1.90;99.90
11925;DHT22;6022;48.768;18.608;2023-02-11T17:18:17;1.50;99.90
11925;DHT22;6022;48.768;18.608;2023-02-11T17:21:00;2.20;99.90
11925;DHT22;6022;48.768;18.608;2023-02-11T17:23:28;2.00;99.90
11925;DHT22;6022;48.768;18.608;2023-02-11T17:26:13;1.90;99.90
11925;DHT22;6022;48.768;18.608;2023-02-11T17:28:42;1.80;99.90
11925;DHT22;6022;48.768;18.608;2023-02-11T17:31:19;1.80;99.90
11925;DHT22;6022;48.768;18.608;2023-02-11T17:33:49;1.80;99.90
11925;DHT22;6022;48.768;18.608;2023-02-11T17:36:41;1.80;99.90
11925;DHT22;6022;48.768;18.608;2023-02-11T17:39:19;1.90;99.90
11925;DHT22;6022;48.768;18.608;2023-02-11T17:41:50;1.90;99.90
11925;DHT22;6022;48.768;18.608;2023-02-11T17:44:18;1.80;99.90
11925;DHT22;6022;48.768;18.608;2023-02-11T17:46:49;1.70;99.90
11925;DHT22;6022;48.768;18.608;2023-02-11T17:49:21;1.90;99.90
11925;DHT22;6022;48.768;18.608;2023-02-11T17:52:06;4.50;99.90
11925;DHT22;6022;48.768;18.608;2023-02-11T17:54:42;1.90;99.90
11925;DHT22;6022;48.768;18.608;2023-02-11T17:57:13;1.80;99.90
11925;DHT22;6022;48.768;18.608;2023-02-11T17:59:57;1.80;99.90
11925;DHT22;6022;48.768;18.608;2023-02-11T18:02:33;1.80;99.90
11925;DHT22;6022;48.768;18.608;2023-02-11T18:05:04;1.80;99.90
11925;DHT22;6022;48.768;18.608;2023-02-11T18:07:45;2.00;99.90
11925;DHT22;6022;48.768;18.608;2023-02-11T18:10:24;2.00;99.90
11925;DHT22;6022;48.768;18.608;2023-02-11T18:12:56;2.00;99.90
11925;DHT22;6022;48.768;18.608;2023-02-11T18:15:24;1.80;99.90
11925;DHT22;6022;48.768;18.608;2023-02-11T18:17:57;1.80;99.90
11925;DHT22;6022;48.768;18.608;2023-02-11T18:20:30;1.60;99.90
11925;DHT22;6022;48.768;18.608;2023-02-11T18:23:12;1.80;99.90
11925;DHT22;6022;48.768;18.608;2023-02-11T18:25:43;2.00;99.90
11925;DHT22;6022;48.768;18.608;2023-02-11T18:28:10;1.80;99.90
11925;DHT22;6022;48.768;18.608;2023-02-11T18:30:38;1.80;99.90
11925;DHT22;6022;48.768;18.608;2023-02-11T18:33:08;1.80;99.90
11925;DHT22;6022;48.768;18.608;2023-02-11T18:35:53;1.80;99.90
11925;DHT22;6022;48.768;18.608;2023-02-11T18:38:21;1.90;99.90
11925;DHT22;6022;48.768;18.608;2023-02-11T18:40:49;1.90;99.90
11925;DHT22;6022;48.768;18.608;2023-02-11T18:43:19;1.90;99.90
11925;DHT22;6022;48.768;18.608;2023-02-11T18:45:56;1.60;99.90
11925;DHT22;6022;48.768;18.608;2023-02-11T18:48:24;1.80;99.90
11925;DHT22;6022;48.768;18.608;2023-02-11T18:50:57;1.70;99.90
11925;DHT22;6022;48.768;18.608;2023-02-11T18:53:26;1.60;99.90
11925;DHT22;6022;48.768;18.608;2023-02-11T18:55:54;1.80;99.90
11925;DHT22;6022;48.768;18.608;2023-02-11T18:58:21;1.80;99.90
11925;DHT22;6022;48.768;18.608;2023-02-11T19:00:49;1.40;99.90
11925;DHT22;6022;48.768;18.608;2023-02-11T19:03:17;1.80;99.90
11925;DHT22;6022;48.768;18.608;2023-02-11T19:05:48;1.50;99.90
11925;DHT22;6022;48.768;18.608;2023-02-11T19:08:36;1.60;99.90
11925;DHT22;6022;48.768;18.608;2023-02-11T19:11:04;1.80;99.90
11925;DHT22;6022;48.768;18.608;2023-02-11T19:13:31;1.70;99.90
11925;DHT22;6022;48.768;18.608;2023-02-11T19:15:59;1.80;99.90
11925;DHT22;6022;48.768;18.608;2023-02-11T19:18:39;1.70;99.90
11925;DHT22;6022;48.768;18.608;2023-02-11T19:21:11;1.70;99.90
11925;DHT22;6022;48.768;18.608;2023-02-11T19:23:40;1.70;99.90
11925;DHT22;6022;48.768;18.608;2023-02-11T19:26:07;1.40;99.90
11925;DHT22;6022;48.768;18.608;2023-02-11T19:28:36;1.50;99.90